Time;durP1;ratioP1;P1;durP2;ratioP2;P2;SDS_P1;SDS_P2;PMS_P1;PMS_P2;Temp;Humidity;BMP_temperature;BMP_pressure;BME280_temperature;BME280_humidity;BME280_pressure;Samples;Min_cycle;Max_cycle;Signal;HPM_P1;HPM_P2
2022/01/02 00:00:04;;;;;;;3.00;2.57;;;12.50;99.90;;;;;;5069083;28;20435;-44
2022/01/02 00:02:40;;;;;;;3.27;2.90;;;12.70;99.90;;;;;;5067272;28;20427;-45
2022/01/02 00:05:17;;;;;;;3.57;2.93;;;12.60;99.90;;;;;;5067722;28;20458;-44
2022/01/02 00:08:08;;;;;;;2.97;2.67;;;12.60;99.90;;;;;;5069775;28;20433;-47
2022/01/02 00:10:53;;;;;;;3.60;3.00;;;12.70;99.90;;;;;;5067242;28;20770;-44
2022/01/02 00:13:36;;;;;;;3.47;2.60;;;12.80;99.90;;;;;;5060965;28;20428;-44
2022/01/02 00:16:17;;;;;;;3.77;2.90;;;12.50;99.90;;;;;;5065911;28;20426;-44
2022/01/02 00:19:08;;;;;;;4.80;3.37;;;12.60;99.90;;;;;;5063131;28;20905;-44
2022/01/02 00:21:49;;;;;;;3.63;2.50;;;12.70;99.90;;;;;;5065266;28;21026;-44
2022/01/02 00:24:27;;;;;;;4.03;2.93;;;12.70;99.90;;;;;;5067488;28;20419;-45
2022/01/02 00:27:03;;;;;;;2.90;2.50;;;12.70;99.90;;;;;;5055594;28;20428;-48
2022/01/02 00:29:43;;;;;;;3.20;2.77;;;12.60;99.90;;;;;;5046681;28;20423;-44
2022/01/02 00:32:23;;;;;;;5.63;3.13;;;12.70;99.90;;;;;;5069744;28;20873;-45
2022/01/02 00:34:59;;;;;;;3.87;2.70;;;12.70;99.90;;;;;;5067356;28;20838;-46
2022/01/02 00:37:34;;;;;;;4.40;2.47;;;12.70;99.90;;;;;;5062086;28;20466;-44
2022/01/02 00:40:13;;;;;;;3.90;3.27;;;12.70;99.90;;;;;;5067860;28;20442;-44
2022/01/02 00:42:55;;;;;;;3.43;2.80;;;12.70;99.90;;;;;;5056734;28;20456;-45
2022/01/02 00:45:35;;;;;;;2.80;2.40;;;12.70;99.90;;;;;;5068243;28;20547;-44
2022/01/02 00:48:31;;;;;;;4.03;3.10;;;12.60;99.90;;;;;;5057508;28;20495;-44
2022/01/02 00:51:19;;;;;;;3.10;2.80;;;12.60;99.90;;;;;;5069010;28;20432;-49
2022/01/02 00:53:58;;;;;;;3.50;2.73;;;12.70;99.90;;;;;;5068591;28;20756;-43
2022/01/02 00:56:40;;;;;;;3.30;2.53;;;12.70;99.90;;;;;;5062487;28;20949;-44
2022/01/02 00:59:29;;;;;;;4.90;2.87;;;12.70;99.90;;;;;;5068165;28;20710;-44
2022/01/02 01:02:11;;;;;;;4.03;2.37;;;12.70;99.90;;;;;;5068197;28;20819;-44
2022/01/02 01:04:50;;;;;;;3.40;2.30;;;12.70;99.90;;;;;;5059220;28;20873;-45
2022/01/02 01:07:29;;;;;;;3.40;2.50;;;12.80;99.90;;;;;;5068336;28;20509;-46
2022/01/02 01:10:11;;;;;;;3.60;2.60;;;12.80;99.90;;;;;;5068828;28;20427;-45
2022/01/02 01:12:52;;;;;;;3.90;3.10;;;12.80;99.90;;;;;;5061831;28;20431;-45
2022/01/02 01:15:29;;;;;;;5.93;2.93;;;12.80;99.90;;;;;;5071565;28;20529;-47
2022/01/02 01:18:08;;;;;;;3.20;2.57;;;12.80;99.90;;;;;;5082708;28;20479;-44
2022/01/02 01:20:47;;;;;;;3.80;2.60;;;12.60;99.90;;;;;;5086737;28;20429;-44
2022/01/02 01:23:19;;;;;;;3.37;2.30;;;12.80;99.90;;;;;;5088186;28;20430;-44
2022/01/02 01:25:54;;;;;;;2.93;2.50;;;12.90;99.90;;;;;;5065293;28;20552;-44
2022/01/02 01:28:30;;;;;;;4.27;2.60;;;12.90;99.90;;;;;;5060613;28;20423;-44
2022/01/02 01:31:05;;;;;;;3.10;2.43;;;13.10;99.90;;;;;;5067306;28;20431;-43
2022/01/02 01:33:36;;;;;;;3.43;2.50;;;12.90;99.90;;;;;;5056400;28;20932;-44
2022/01/02 01:36:02;;;;;;;4.30;2.77;;;12.90;99.90;;;;;;5068042;28;20434;-44
2022/01/02 01:38:29;;;;;;;8.30;2.73;;;13.00;99.90;;;;;;5065339;28;20422;-44
2022/01/02 01:41:03;;;;;;;8.40;2.73;;;12.90;99.90;;;;;;5068000;28;20507;-44
2022/01/02 01:43:37;;;;;;;4.47;2.90;;;12.90;99.90;;;;;;5059562;28;20560;-44
2022/01/02 01:46:05;;;;;;;3.37;2.77;;;12.90;99.90;;;;;;5064035;28;21044;-44
2022/01/02 01:48:31;;;;;;;4.50;2.47;;;12.90;99.90;;;;;;5060971;28;20557;-45
2022/01/02 01:50:56;;;;;;;3.23;2.47;;;12.90;99.90;;;;;;5065864;28;20896;-43
2022/01/02 01:53:22;;;;;;;3.43;2.33;;;12.90;99.90;;;;;;5067360;28;20642;-43
2022/01/02 01:55:49;;;;;;;2.63;2.43;;;12.90;99.90;;;;;;5068154;28;20185;-45
2022/01/02 01:58:16;;;;;;;3.03;2.67;;;12.90;99.90;;;;;;5056310;28;20612;-47
2022/01/02 02:00:41;;;;;;;3.70;2.73;;;12.90;99.90;;;;;;5067879;28;20504;-46
2022/01/02 02:03:07;;;;;;;4.30;2.60;;;12.90;99.90;;;;;;5067809;28;20522;-43
2022/01/02 02:05:33;;;;;;;3.33;2.60;;;12.90;99.90;;;;;;5066987;28;20464;-43
2022/01/02 02:07:59;;;;;;;4.03;2.60;;;12.90;99.90;;;;;;5067673;28;20267;-43
2022/01/02 02:10:31;;;;;;;5.17;2.87;;;12.90;99.90;;;;;;5067740;28;20546;-48
2022/01/02 02:12:58;;;;;;;3.70;2.50;;;12.90;99.90;;;;;;5055475;28;20432;-44
2022/01/02 02:15:25;;;;;;;4.17;2.67;;;13.00;99.90;;;;;;5069718;28;20442;-46
2022/01/02 02:17:51;;;;;;;2.70;2.33;;;12.90;99.90;;;;;;5060186;28;20427;-44
2022/01/02 02:20:29;;;;;;;3.17;2.30;;;13.00;99.90;;;;;;5065976;28;20809;-43
2022/01/02 02:22:56;;;;;;;4.57;2.43;;;13.00;99.90;;;;;;5067018;28;20646;-44
2022/01/02 02:25:30;;;;;;;3.30;2.57;;;13.00;99.90;;;;;;5067368;28;20459;-46
2022/01/02 02:28:26;;;;;;;5.13;2.73;;;13.00;99.90;;;;;;5058221;28;20646;-46
2022/01/02 02:30:52;;;;;;;4.80;2.80;;;12.90;99.90;;;;;;5060876;28;20630;-43
2022/01/02 02:33:19;;;;;;;6.37;3.20;;;13.00;99.90;;;;;;5070415;28;20453;-44
2022/01/02 02:35:46;;;;;;;5.40;3.07;;;13.00;99.90;;;;;;5067149;28;20502;-44
2022/01/02 02:38:14;;;;;;;4.90;2.93;;;13.00;99.90;;;;;;5065669;28;20644;-44
2022/01/02 02:40:40;;;;;;;7.60;2.90;;;13.00;99.90;;;;;;5067383;28;20773;-44
2022/01/02 02:51:22;;;;;;;2.77;2.20;;;13.10;99.90;;;;;;5067091;28;20858;-44
2022/01/02 02:53:50;;;;;;;4.20;2.90;;;13.10;99.90;;;;;;5066876;28;20785;-45
2022/01/02 02:56:29;;;;;;;6.10;2.57;;;13.10;99.90;;;;;;5067057;28;20466;-44
2022/01/02 02:58:56;;;;;;;4.60;2.27;;;13.10;99.90;;;;;;5059485;28;20431;-44
2022/01/02 03:01:25;;;;;;;5.40;2.57;;;13.10;99.90;;;;;;5065606;28;20631;-47
2022/01/02 03:03:51;;;;;;;8.37;2.60;;;13.00;99.90;;;;;;5066041;28;20427;-44
2022/01/02 03:06:18;;;;;;;5.00;2.70;;;13.10;99.90;;;;;;5066737;28;20463;-45
2022/01/02 03:08:45;;;;;;;5.03;2.67;;;13.10;99.90;;;;;;5066518;28;20427;-46
2022/01/02 03:11:17;;;;;;;4.47;2.40;;;13.10;99.90;;;;;;5066768;28;20574;-43
2022/01/02 03:13:43;;;;;;;4.27;2.70;;;13.00;99.90;;;;;;5054244;28;20928;-44
2022/01/02 03:16:09;;;;;;;3.80;2.80;;;13.10;99.90;;;;;;5066025;28;20439;-44
2022/01/02 03:18:37;;;;;;;5.37;2.50;;;13.10;99.90;;;;;;5066265;28;20423;-44
2022/01/02 03:21:02;;;;;;;6.50;2.93;;;13.10;99.90;;;;;;5066665;28;20431;-44
2022/01/02 03:23:28;;;;;;;5.80;2.80;;;13.10;99.90;;;;;;5065950;28;20435;-46
2022/01/02 03:25:54;;;;;;;5.70;2.73;;;13.10;99.90;;;;;;5066507;28;20208;-44
2022/01/02 03:28:20;;;;;;;4.80;2.70;;;13.10;99.90;;;;;;5055538;28;20209;-44
2022/01/02 03:30:45;;;;;;;5.60;3.63;;;13.10;99.90;;;;;;5065255;28;20185;-44
2022/01/02 03:33:11;;;;;;;3.77;2.10;;;13.10;99.90;;;;;;5065469;28;20621;-44
2022/01/02 03:35:37;;;;;;;5.07;2.50;;;13.10;99.90;;;;;;5066667;28;20199;-43
2022/01/02 03:38:04;;;;;;;8.10;3.17;;;13.10;99.90;;;;;;5065115;28;20641;-44
2022/01/02 03:40:29;;;;;;;3.50;2.93;;;13.10;99.90;;;;;;5066524;28;20493;-44
2022/01/02 03:42:55;;;;;;;3.77;2.37;;;13.10;99.90;;;;;;5057735;28;20440;-45
2022/01/02 03:45:21;;;;;;;3.83;2.30;;;13.10;99.90;;;;;;5065446;28;20304;-43
2022/01/02 03:47:47;;;;;;;6.73;3.10;;;13.10;99.90;;;;;;5065059;28;20401;-43
2022/01/02 03:50:14;;;;;;;4.50;2.73;;;13.10;99.90;;;;;;5066449;28;20181;-45
2022/01/02 03:52:40;;;;;;;2.67;2.30;;;13.10;99.90;;;;;;5066018;28;20429;-46
2022/01/02 03:55:06;;;;;;;3.60;2.50;;;13.10;99.90;;;;;;5066035;28;20518;-43
2022/01/02 03:57:32;;;;;;;4.00;2.70;;;13.10;99.90;;;;;;5060636;28;20288;-43
2022/01/02 03:59:58;;;;;;;4.50;2.23;;;13.10;99.90;;;;;;5062600;28;20526;-44
2022/01/02 04:02:23;;;;;;;5.30;2.80;;;13.20;99.90;;;;;;5066415;28;20196;-44
2022/01/02 04:04:49;;;;;;;4.50;2.60;;;13.20;99.90;;;;;;5065495;28;20212;-44
2022/01/02 04:07:15;;;;;;;4.50;2.80;;;13.10;99.90;;;;;;5066731;28;20185;-43
2022/01/02 04:09:40;;;;;;;3.37;2.30;;;13.20;99.90;;;;;;5066241;28;20242;-44
2022/01/02 04:12:06;;;;;;;5.63;2.77;;;13.10;99.90;;;;;;5065022;28;20185;-43
2022/01/02 04:14:32;;;;;;;3.60;2.60;;;13.10;99.90;;;;;;5056845;28;20555;-49
2022/01/02 04:16:57;;;;;;;6.40;2.50;;;13.10;99.90;;;;;;5069014;28;20177;-43
2022/01/02 04:19:23;;;;;;;5.17;2.67;;;13.10;99.90;;;;;;5066631;28;20185;-44
2022/01/02 04:21:49;;;;;;;5.13;2.80;;;13.10;99.90;;;;;;5069332;28;20185;-44
2022/01/02 04:24:14;;;;;;;6.83;2.80;;;13.00;99.90;;;;;;5069482;28;20191;-44
2022/01/02 04:26:40;;;;;;;4.23;2.47;;;13.10;99.90;;;;;;5069648;28;20614;-44
2022/01/02 04:29:06;;;;;;;8.73;3.27;;;13.00;99.90;;;;;;5055874;28;20341;-44
2022/01/02 04:31:32;;;;;;;4.23;2.60;;;13.20;99.90;;;;;;5069992;28;20192;-43
2022/01/02 04:33:58;;;;;;;6.80;3.80;;;13.00;99.90;;;;;;5069341;28;20610;-44
2022/01/02 04:36:23;;;;;;;4.70;2.53;;;13.00;99.90;;;;;;5068395;28;20458;-45
2022/01/02 04:38:49;;;;;;;8.70;3.17;;;13.00;99.90;;;;;;5068365;28;20582;-46
2022/01/02 04:41:15;;;;;;;4.27;3.20;;;13.00;99.90;;;;;;5069603;28;20185;-45
2022/01/02 04:43:40;;;;;;;4.57;2.50;;;13.00;99.90;;;;;;5059101;28;20186;-43
2022/01/02 04:46:06;;;;;;;7.10;3.43;;;13.00;99.90;;;;;;5067330;28;20404;-45
2022/01/02 04:48:32;;;;;;;4.03;2.73;;;13.00;99.90;;;;;;5068952;28;20287;-45
2022/01/02 04:50:58;;;;;;;5.27;2.30;;;13.00;99.90;;;;;;5071899;28;20280;-45
2022/01/02 04:53:23;;;;;;;5.47;2.90;;;12.90;99.90;;;;;;5069275;28;21040;-43
2022/01/02 04:55:49;;;;;;;4.63;2.60;;;12.90;99.90;;;;;;5069275;28;20285;-46
2022/01/02 04:58:16;;;;;;;6.87;3.50;;;12.90;99.90;;;;;;5063771;28;20586;-43
2022/01/02 05:00:42;;;;;;;5.20;2.97;;;12.90;99.90;;;;;;5064025;28;20294;-43
2022/01/02 05:03:08;;;;;;;5.60;3.50;;;12.90;99.90;;;;;;5069088;28;20528;-44
2022/01/02 05:05:33;;;;;;;7.20;3.47;;;12.90;99.90;;;;;;5067976;28;20587;-43
2022/01/02 05:07:59;;;;;;;4.80;2.57;;;12.90;99.90;;;;;;5069351;28;20468;-44
2022/01/02 05:10:25;;;;;;;7.87;3.00;;;12.90;99.90;;;;;;5069139;28;20184;-46
2022/01/02 05:12:50;;;;;;;10.20;3.90;;;13.10;99.90;;;;;;5063784;28;20186;-44
2022/01/02 05:15:16;;;;;;;7.63;3.40;;;12.70;99.90;;;;;;5063237;28;20553;-43
2022/01/02 05:17:43;;;;;;;6.73;2.97;;;12.80;99.90;;;;;;5068986;28;20555;-46
2022/01/02 05:20:09;;;;;;;5.80;2.90;;;12.70;99.90;;;;;;5068282;28;20439;-43
2022/01/02 05:22:35;;;;;;;4.50;3.10;;;12.80;99.90;;;;;;5067524;28;20457;-42
2022/01/02 05:25:01;;;;;;;6.43;3.10;;;12.80;99.90;;;;;;5068513;28;20455;-44
2022/01/02 05:27:27;;;;;;;4.63;2.70;;;12.80;99.90;;;;;;5069030;28;20181;-43
2022/01/02 05:29:52;;;;;;;5.80;2.63;;;12.80;99.90;;;;;;5056577;28;20233;-43
2022/01/02 05:32:18;;;;;;;4.40;2.33;;;12.80;99.90;;;;;;5067923;28;20188;-44
2022/01/02 05:34:43;;;;;;;4.67;3.10;;;12.80;99.90;;;;;;5068375;28;20185;-43
2022/01/02 05:37:09;;;;;;;4.50;3.30;;;12.80;99.90;;;;;;5068589;28;20193;-45
2022/01/02 05:39:35;;;;;;;9.37;3.27;;;12.80;99.90;;;;;;5067056;28;20181;-45
2022/01/02 05:42:00;;;;;;;5.63;2.80;;;12.90;99.90;;;;;;5068989;28;20185;-44
2022/01/02 05:44:26;;;;;;;6.70;3.00;;;12.80;99.90;;;;;;5056990;28;20192;-47
2022/01/02 05:46:53;;;;;;;6.60;2.60;;;12.80;99.90;;;;;;5068946;28;20181;-44
2022/01/02 05:49:19;;;;;;;4.50;3.10;;;12.90;99.90;;;;;;5067362;28;20184;-46
2022/01/02 05:51:45;;;;;;;9.93;3.90;;;12.90;99.90;;;;;;5068654;28;20572;-43
2022/01/02 05:54:11;;;;;;;7.67;3.33;;;12.80;99.90;;;;;;5067649;28;20177;-42
2022/01/02 05:56:36;;;;;;;5.10;2.40;;;12.80;99.90;;;;;;5068363;28;20207;-49
2022/01/02 05:59:03;;;;;;;6.93;3.30;;;12.80;99.90;;;;;;5065063;28;20806;-45
2022/01/02 06:01:28;;;;;;;5.60;2.83;;;12.80;99.90;;;;;;5067281;28;20189;-43
2022/01/02 06:03:54;;;;;;;6.00;3.80;;;12.80;99.90;;;;;;5067328;28;20430;-42
2022/01/02 06:06:20;;;;;;;6.07;3.20;;;12.80;99.90;;;;;;5068340;28;20559;-44
2022/01/02 06:08:45;;;;;;;7.43;3.30;;;12.70;99.90;;;;;;5068262;28;20558;-44
2022/01/02 06:11:11;;;;;;;5.13;3.10;;;12.70;99.90;;;;;;5068456;28;20530;-43
2022/01/02 06:13:37;;;;;;;4.27;3.13;;;12.70;99.90;;;;;;5059924;28;20182;-45
2022/01/02 06:16:03;;;;;;;8.07;2.93;;;12.70;99.90;;;;;;5064758;28;20276;-43
2022/01/02 06:18:28;;;;;;;5.30;3.43;;;12.80;99.90;;;;;;5067989;28;20193;-43
2022/01/02 06:20:54;;;;;;;4.03;3.63;;;12.80;99.90;;;;;;5067727;28;20185;-45
2022/01/02 06:23:20;;;;;;;6.00;3.13;;;12.70;99.90;;;;;;5067269;28;20455;-43
2022/01/02 06:25:46;;;;;;;4.63;3.37;;;12.70;99.90;;;;;;5067504;28;20205;-45
2022/01/02 06:28:12;;;;;;;5.30;3.07;;;12.70;99.90;;;;;;5065702;28;20279;-45
2022/01/02 06:30:38;;;;;;;5.10;3.57;;;12.70;99.90;;;;;;5059297;28;20242;-45
2022/01/02 06:33:04;;;;;;;7.83;3.50;;;12.70;99.90;;;;;;5065989;28;20423;-43
2022/01/02 06:35:34;;;;;;;5.70;3.93;;;12.70;99.90;;;;;;5067474;28;20220;-44
2022/01/02 06:38:16;;;;;;;5.83;4.03;;;12.80;99.90;;;;;;5066068;28;20913;-44
2022/01/02 06:40:42;;;;;;;8.90;4.50;;;12.60;99.90;;;;;;5067037;28;20909;-44
2022/01/02 06:43:08;;;;;;;6.27;3.50;;;12.70;99.90;;;;;;5066350;28;20431;-44
2022/01/02 06:45:35;;;;;;;7.30;4.20;;;12.50;99.90;;;;;;5059033;28;20644;-45
2022/01/02 06:48:02;;;;;;;6.53;4.27;;;12.50;99.90;;;;;;5067410;28;20423;-43
2022/01/02 06:50:28;;;;;;;6.73;3.70;;;12.50;99.90;;;;;;5067369;28;20908;-44
2022/01/02 06:52:53;;;;;;;7.00;3.93;;;12.40;99.90;;;;;;5066370;28;20419;-44
2022/01/02 06:55:19;;;;;;;4.77;3.57;;;12.40;99.90;;;;;;5067339;28;20189;-44
2022/01/02 06:57:45;;;;;;;6.37;3.70;;;12.40;99.90;;;;;;5066409;28;20209;-44
2022/01/02 07:00:11;;;;;;;7.83;3.90;;;12.40;99.90;;;;;;5059409;28;20667;-45
2022/01/02 07:02:36;;;;;;;6.43;3.90;;;12.30;99.90;;;;;;5060867;28;20537;-44
2022/01/02 07:05:03;;;;;;;7.03;4.10;;;12.40;99.90;;;;;;5064833;28;20457;-43
2022/01/02 07:07:29;;;;;;;5.93;3.97;;;12.40;99.90;;;;;;5065988;28;20192;-43
2022/01/02 07:09:55;;;;;;;5.27;3.37;;;12.30;99.90;;;;;;5066911;28;20416;-44
2022/01/02 07:12:23;;;;;;;8.23;3.70;;;12.50;99.90;;;;;;5067716;28;20189;-44
2022/01/02 07:14:50;;;;;;;7.60;4.27;;;12.50;99.90;;;;;;5060906;28;20671;-43
2022/01/02 07:17:16;;;;;;;7.40;3.83;;;12.70;99.90;;;;;;5068517;28;20497;-47
2022/01/02 07:19:41;;;;;;;7.73;4.70;;;12.50;99.90;;;;;;5067161;28;20934;-43
2022/01/02 07:22:07;;;;;;;6.83;4.30;;;12.50;99.90;;;;;;5067017;28;20431;-44
2022/01/02 07:24:33;;;;;;;7.17;3.97;;;12.50;99.90;;;;;;5066048;28;20254;-43
2022/01/02 07:27:00;;;;;;;7.03;4.30;;;12.20;99.90;;;;;;5067138;28;20263;-45
2022/01/02 07:29:25;;;;;;;9.20;4.47;;;12.30;99.90;;;;;;5059427;28;21034;-43
2022/01/02 07:31:51;;;;;;;5.73;4.20;;;12.20;99.90;;;;;;5062170;28;20415;-43
2022/01/02 07:34:17;;;;;;;9.77;5.33;;;12.20;99.90;;;;;;5066226;28;20188;-43
2022/01/02 07:36:45;;;;;;;9.70;4.93;;;12.30;99.90;;;;;;5066879;28;20433;-43
2022/01/02 07:39:14;;;;;;;5.17;3.90;;;12.30;99.90;;;;;;5066631;28;20201;-43
2022/01/02 07:41:41;;;;;;;6.20;4.20;;;12.10;99.90;;;;;;5067091;28;20462;-45
2022/01/02 07:44:06;;;;;;;7.63;4.40;;;12.10;99.90;;;;;;5062282;28;20571;-44
2022/01/02 07:46:33;;;;;;;6.30;3.97;;;11.90;99.90;;;;;;5062643;28;20502;-45
2022/01/02 07:48:58;;;;;;;5.43;3.90;;;12.10;99.90;;;;;;5066870;28;20648;-44
2022/01/02 07:51:24;;;;;;;6.73;4.10;;;12.00;99.90;;;;;;5065232;28;20431;-43
2022/01/02 07:53:50;;;;;;;4.63;3.80;;;12.10;99.90;;;;;;5065496;28;20246;-44
2022/01/02 07:56:15;;;;;;;6.20;4.47;;;12.10;99.90;;;;;;5068687;28;20196;-45
2022/01/02 07:58:41;;;;;;;6.87;3.90;;;12.10;99.90;;;;;;5068372;28;20287;-43
2022/01/02 08:01:07;;;;;;;7.10;4.00;;;12.10;99.90;;;;;;5056757;28;20200;-43
2022/01/02 08:03:32;;;;;;;7.13;4.63;;;12.10;99.90;;;;;;5072185;28;20177;-43
2022/01/02 08:05:58;;;;;;;5.60;3.90;;;12.10;99.90;;;;;;5068937;28;20303;-43
2022/01/02 08:08:24;;;;;;;8.33;3.40;;;12.10;99.90;;;;;;5068629;28;20242;-44
2022/01/02 08:10:49;;;;;;;10.57;4.23;;;12.10;99.90;;;;;;5069571;28;20320;-44
2022/01/02 08:13:15;;;;;;;7.20;3.40;;;12.10;99.90;;;;;;5069043;28;20200;-43
2022/01/02 08:15:41;;;;;;;7.10;3.60;;;12.10;99.90;;;;;;5057856;28;20189;-44
2022/01/02 08:18:06;;;;;;;10.10;4.07;;;12.20;99.90;;;;;;5067775;28;20243;-44
2022/01/02 08:20:32;;;;;;;8.37;4.30;;;12.10;99.90;;;;;;5068903;28;20195;-43
2022/01/02 08:22:58;;;;;;;7.40;3.90;;;12.20;99.90;;;;;;5067782;28;20194;-44
2022/01/02 08:25:24;;;;;;;7.80;4.30;;;12.00;99.90;;;;;;5069241;28;20212;-43
2022/01/02 08:27:49;;;;;;;6.10;3.90;;;12.00;99.90;;;;;;5069504;28;20461;-43
2022/01/02 08:30:15;;;;;;;7.50;3.83;;;12.10;99.90;;;;;;5060456;28;20569;-43
2022/01/02 08:32:41;;;;;;;6.83;3.57;;;12.20;99.90;;;;;;5068733;28;20209;-43
2022/01/02 08:35:07;;;;;;;5.57;3.50;;;12.10;99.90;;;;;;5068409;28;20189;-44
2022/01/02 08:37:33;;;;;;;5.57;3.63;;;12.10;99.90;;;;;;5068963;28;20221;-44
2022/01/02 08:39:58;;;;;;;3.97;3.40;;;12.10;99.90;;;;;;5069270;28;20458;-43
2022/01/02 08:42:24;;;;;;;6.20;4.07;;;12.30;99.90;;;;;;5069121;28;20286;-43
2022/01/02 08:44:50;;;;;;;6.57;3.23;;;12.10;99.90;;;;;;5059712;28;20465;-43
2022/01/02 08:47:16;;;;;;;5.60;3.37;;;12.20;99.90;;;;;;5066796;28;20192;-46
2022/01/02 08:49:42;;;;;;;5.07;3.00;;;12.10;99.90;;;;;;5069304;28;20902;-44
2022/01/02 08:52:08;;;;;;;2.83;2.63;;;12.10;99.90;;;;;;5068774;28;20676;-46
2022/01/02 08:54:34;;;;;;;5.63;2.60;;;12.40;99.90;;;;;;5065288;28;20505;-44
2022/01/02 08:57:02;;;;;;;3.80;2.90;;;12.20;99.90;;;;;;5067566;28;20439;-44
2022/01/02 08:59:28;;;;;;;6.10;2.80;;;12.20;99.90;;;;;;5066990;28;20447;-48
2022/01/02 09:01:56;;;;;;;3.67;2.70;;;12.20;99.90;;;;;;5067633;28;20426;-43
2022/01/02 09:04:23;;;;;;;4.80;2.60;;;12.50;99.90;;;;;;5068214;28;20447;-44
2022/01/02 09:06:49;;;;;;;2.97;2.50;;;12.30;99.90;;;;;;5066010;28;20881;-46
2022/01/02 09:09:14;;;;;;;3.37;3.03;;;12.30;99.90;;;;;;5067268;28;20470;-46
2022/01/02 09:11:40;;;;;;;5.70;2.80;;;12.30;99.90;;;;;;5072102;28;20186;-45
2022/01/02 09:14:05;;;;;;;3.77;2.80;;;12.30;99.90;;;;;;5067366;28;20193;-43
2022/01/02 09:16:33;;;;;;;5.47;2.70;;;12.50;99.90;;;;;;5066629;28;20227;-44
2022/01/02 09:18:59;;;;;;;3.40;3.10;;;12.40;99.90;;;;;;5068173;28;20197;-46
2022/01/02 09:21:24;;;;;;;4.07;2.53;;;12.30;99.90;;;;;;5066221;28;20469;-43
2022/01/02 09:23:50;;;;;;;6.40;2.73;;;12.20;99.90;;;;;;5063200;28;20185;-44
2022/01/02 09:26:16;;;;;;;4.00;2.97;;;12.30;99.90;;;;;;5068874;28;20259;-44
2022/01/02 09:28:41;;;;;;;4.50;2.70;;;12.30;99.90;;;;;;5068432;28;20221;-43
2022/01/02 09:31:07;;;;;;;3.93;2.93;;;12.30;99.90;;;;;;5056437;28;20224;-43
2022/01/02 09:33:33;;;;;;;3.97;3.03;;;12.30;99.90;;;;;;5067473;28;20185;-44
2022/01/02 09:35:59;;;;;;;3.77;2.60;;;12.40;99.90;;;;;;5063470;28;20488;-44
2022/01/02 09:38:25;;;;;;;3.27;2.50;;;12.30;99.90;;;;;;5068525;28;20571;-46
2022/01/02 09:40:51;;;;;;;3.40;2.20;;;12.30;99.90;;;;;;5067805;28;20480;-44
2022/01/02 09:43:18;;;;;;;3.27;2.50;;;12.30;99.90;;;;;;5068464;28;20185;-44
2022/01/02 09:45:46;;;;;;;3.80;2.77;;;12.50;99.90;;;;;;5059538;28;20471;-45
2022/01/02 09:48:11;;;;;;;5.20;2.57;;;12.40;99.90;;;;;;5064904;28;20427;-46
2022/01/02 09:50:39;;;;;;;3.43;2.50;;;12.50;99.90;;;;;;5067908;28;20518;-44
2022/01/02 09:53:05;;;;;;;2.53;2.33;;;12.50;99.90;;;;;;5066514;28;20247;-46
2022/01/02 09:55:31;;;;;;;3.47;2.40;;;12.60;99.90;;;;;;5068721;28;20415;-46
2022/01/02 09:57:59;;;;;;;4.33;2.80;;;12.80;99.90;;;;;;5067820;28;20450;-44
2022/01/02 10:00:27;;;;;;;4.10;2.50;;;12.60;99.90;;;;;;5065372;28;20598;-46
2022/01/02 10:03:01;;;;;;;3.97;2.80;;;12.70;99.90;;;;;;5062384;28;20538;-44
2022/01/02 10:05:29;;;;;;;2.80;2.33;;;12.60;99.90;;;;;;5067378;28;20866;-45
2022/01/02 10:07:56;;;;;;;3.93;2.50;;;12.70;99.90;;;;;;5066767;28;20434;-43
2022/01/02 10:10:33;;;;;;;2.57;2.33;;;12.70;99.90;;;;;;5066984;28;20423;-43
2022/01/02 10:13:03;;;;;;;4.03;2.43;;;12.70;99.90;;;;;;5067199;28;20887;-44
2022/01/02 10:15:29;;;;;;;2.80;2.47;;;12.70;99.90;;;;;;5060750;28;20439;-44
2022/01/02 10:18:07;;;;;;;3.43;2.63;;;12.80;99.90;;;;;;5062206;28;20423;-44
2022/01/02 10:20:39;;;;;;;3.33;2.37;;;12.80;99.90;;;;;;5067033;28;20458;-44
2022/01/02 10:23:18;;;;;;;8.53;2.93;;;12.90;99.90;;;;;;5066912;28;20433;-43
2022/01/02 10:25:50;;;;;;;3.27;2.97;;;12.80;99.90;;;;;;5067073;28;21112;-43
2022/01/02 10:28:32;;;;;;;3.47;2.47;;;13.00;99.90;;;;;;5066580;28;20447;-44
2022/01/02 10:31:02;;;;;;;4.13;3.23;;;12.80;99.90;;;;;;5058393;28;20428;-43
2022/01/02 10:33:48;;;;;;;2.80;2.30;;;12.80;99.90;;;;;;5066484;28;20422;-44
2022/01/02 10:36:15;;;;;;;5.00;3.10;;;12.80;99.90;;;;;;5066794;28;20430;-43
2022/01/02 10:39:07;;;;;;;3.43;2.77;;;12.80;99.90;;;;;;5059775;28;20504;-45
2022/01/02 10:41:39;;;;;;;4.90;3.07;;;12.80;99.90;;;;;;5057736;28;20648;-44
2022/01/02 10:44:23;;;;;;;5.23;2.60;;;12.80;99.90;;;;;;5065838;28;20454;-43
2022/01/02 10:47:11;;;;;;;4.60;2.83;;;12.80;99.90;;;;;;5055917;28;20506;-46
2022/01/02 10:49:56;;;;;;;3.50;2.80;;;12.80;99.90;;;;;;5059661;28;20411;-43
2022/01/02 10:52:30;;;;;;;4.40;3.17;;;12.90;99.90;;;;;;5066827;28;20427;-45
2022/01/02 10:54:59;;;;;;;5.10;3.40;;;12.90;99.90;;;;;;5063771;28;20454;-47
2022/01/02 10:57:26;;;;;;;4.17;3.10;;;12.80;99.90;;;;;;5062891;28;20995;-45
2022/01/02 10:59:56;;;;;;;4.77;3.00;;;12.70;99.90;;;;;;5069936;28;20423;-45
2022/01/02 11:02:23;;;;;;;4.60;3.13;;;12.90;99.90;;;;;;5062639;28;20473;-43
2022/01/02 11:04:58;;;;;;;6.40;3.50;;;12.90;99.90;;;;;;5067969;28;20550;-44
2022/01/02 11:07:25;;;;;;;7.60;3.57;;;12.90;99.90;;;;;;5066648;28;20423;-43
2022/01/02 11:09:55;;;;;;;3.93;3.17;;;12.90;99.90;;;;;;5067548;28;20427;-43
2022/01/02 11:12:23;;;;;;;5.10;3.70;;;12.90;99.90;;;;;;5069074;28;20422;-48
2022/01/02 11:14:50;;;;;;;4.27;2.87;;;12.90;99.90;;;;;;5066460;28;20419;-43
2022/01/02 11:17:16;;;;;;;4.53;3.37;;;12.70;99.90;;;;;;5063377;28;20878;-43
2022/01/02 11:19:42;;;;;;;4.27;3.67;;;12.90;99.90;;;;;;5067942;28;20424;-48
2022/01/02 11:22:14;;;;;;;7.97;3.23;;;12.90;99.90;;;;;;5070112;28;20741;-43
2022/01/02 11:24:50;;;;;;;6.43;3.60;;;13.00;99.90;;;;;;5071776;28;20423;-44
2022/01/02 11:27:23;;;;;;;4.93;3.70;;;13.00;99.90;;;;;;5058599;28;20424;-44
2022/01/02 11:29:49;;;;;;;4.13;3.40;;;13.00;99.90;;;;;;5082362;28;20422;-44
2022/01/02 11:32:25;;;;;;;4.07;3.57;;;12.90;99.90;;;;;;5053298;28;20432;-49
2022/01/02 11:34:52;;;;;;;4.10;3.63;;;13.00;99.90;;;;;;5065030;28;20422;-48
2022/01/02 11:37:21;;;;;;;4.17;3.20;;;13.00;99.90;;;;;;5063849;28;20457;-47
2022/01/02 11:39:58;;;;;;;6.57;4.50;;;12.90;99.90;;;;;;5064579;28;20564;-46
2022/01/02 11:42:37;;;;;;;13.20;4.70;;;12.90;99.90;;;;;;5064617;28;20944;-44
2022/01/02 11:45:05;;;;;;;6.07;3.87;;;12.90;99.90;;;;;;5059029;28;20470;-46
2022/01/02 11:47:59;;;;;;;4.80;4.30;;;13.00;99.90;;;;;;5049937;28;20534;-43
2022/01/02 11:50:30;;;;;;;5.73;3.90;;;12.90;99.90;;;;;;5062843;28;20428;-45
2022/01/02 11:53:17;;;;;;;6.23;5.63;;;13.00;99.90;;;;;;5065494;28;20419;-44
2022/01/02 11:55:44;;;;;;;5.37;4.23;;;13.00;99.90;;;;;;5053522;28;20991;-44
2022/01/02 11:58:10;;;;;;;5.27;4.40;;;12.90;99.90;;;;;;5062177;28;20458;-43
2022/01/02 12:00:38;;;;;;;6.37;4.70;;;13.00;99.90;;;;;;5061245;28;20781;-44
2022/01/02 12:03:04;;;;;;;5.07;4.03;;;13.10;99.90;;;;;;5058607;28;20488;-47
2022/01/02 12:05:30;;;;;;;4.83;3.83;;;13.00;99.90;;;;;;5063502;28;20477;-45
2022/01/02 12:07:58;;;;;;;5.03;4.33;;;13.00;99.90;;;;;;5065002;28;20445;-46
2022/01/02 12:10:32;;;;;;;6.00;4.83;;;12.90;99.90;;;;;;5066331;28;20173;-44
2022/01/02 12:13:06;;;;;;;4.47;4.03;;;13.00;99.90;;;;;;5055732;28;20427;-49
2022/01/02 12:15:31;;;;;;;4.47;3.90;;;13.10;99.90;;;;;;5060471;28;20434;-44
2022/01/02 12:18:23;;;;;;;6.57;3.70;;;13.10;99.90;;;;;;5059849;28;20937;-46
2022/01/02 12:21:00;;;;;;;5.57;3.83;;;13.10;99.90;;;;;;5063666;28;20193;-44
2022/01/02 12:23:41;;;;;;;7.50;3.63;;;13.10;99.90;;;;;;5062627;28;20956;-45
2022/01/02 12:26:12;;;;;;;7.30;4.20;;;13.10;99.90;;;;;;5064265;28;20465;-44
2022/01/02 12:28:58;;;;;;;4.20;3.13;;;13.10;99.90;;;;;;5063385;28;20434;-45
2022/01/02 12:31:36;;;;;;;7.43;3.50;;;13.00;99.90;;;;;;5061908;28;20454;-48
2022/01/02 12:34:08;;;;;;;4.93;3.87;;;13.10;99.90;;;;;;5065284;28;20415;-45
2022/01/02 12:36:34;;;;;;;4.43;3.63;;;13.10;99.90;;;;;;5064083;28;20439;-46
2022/01/02 12:39:06;;;;;;;8.67;3.90;;;13.20;99.90;;;;;;5064331;28;20439;-45
2022/01/02 12:41:35;;;;;;;7.43;3.80;;;13.00;99.90;;;;;;5064545;28;20913;-44
2022/01/02 12:44:15;;;;;;;5.50;3.50;;;13.00;99.90;;;;;;5069317;28;20447;-46
2022/01/02 12:46:49;;;;;;;7.10;3.70;;;13.00;99.90;;;;;;5068637;28;20462;-45
2022/01/02 12:49:18;;;;;;;5.23;3.43;;;13.00;99.90;;;;;;5066446;28;20427;-46
2022/01/02 12:51:50;;;;;;;3.93;3.30;;;13.00;99.90;;;;;;5065768;28;20422;-46
2022/01/02 12:54:19;;;;;;;5.60;3.60;;;13.00;99.90;;;;;;5068949;28;20420;-44
2022/01/02 12:56:47;;;;;;;8.40;3.70;;;13.00;99.90;;;;;;5065874;28;20435;-45
2022/01/02 12:59:13;;;;;;;7.87;3.40;;;12.80;99.90;;;;;;5068969;28;20774;-43
2022/01/02 13:01:58;;;;;;;3.70;2.90;;;13.00;99.90;;;;;;5064051;28;21007;-50
2022/01/02 13:04:28;;;;;;;7.67;3.80;;;13.00;99.90;;;;;;5067090;28;20427;-43